createdAt,value
2023-04-25T08:30:16.633Z,22.8
2023-04-25T08:36:08.523Z,23.4
2023-04-25T08:42:13.554Z,24.3
2023-04-25T08:48:09.655Z,23.4
2023-04-25T08:54:08.973Z,23.6
2023-04-25T08:59:56.434Z,23.4
2023-04-25T09:05:54.724Z,23.3
2023-04-25T09:11:47.060Z,23
2023-04-25T09:17:25.862Z,22.8
2023-04-25T09:23:26.537Z,25.1
2023-04-25T09:29:20.190Z,23.4
2023-04-25T09:35:12.586Z,23.4
2023-04-25T09:41:05.719Z,23.4
2023-04-25T09:46:57.578Z,23.3
2023-04-25T09:52:49.448Z,23.1
2023-04-25T09:58:42.248Z,22.8
2023-04-25T10:04:35.297Z,22.6
2023-04-25T10:10:26.487Z,22.3
2023-04-25T10:16:19.751Z,22
2023-04-25T10:21:56.141Z,21.8
2023-04-25T10:27:46.542Z,21.5
2023-04-25T10:33:39.875Z,21.3
2023-04-25T10:39:31.092Z,21.1
2023-04-25T10:45:22.417Z,20.8
2023-04-25T10:51:15.973Z,20.6
2023-04-25T10:57:17.786Z,20.4
2023-04-25T11:03:23.688Z,20.3
2023-04-25T11:09:46.795Z,20.1
2023-04-25T11:15:38.539Z,19.9
2023-04-25T11:21:48.052Z,19.8
2023-04-25T11:27:41.551Z,19.6
2023-04-25T11:33:34.293Z,19.5
2023-04-25T11:39:26.179Z,19.3
2023-04-25T11:45:29.223Z,19.2
2023-04-25T11:51:27.689Z,19.1
2023-04-25T11:57:18.320Z,19
2023-04-25T12:03:20.752Z,18.9
2023-04-25T12:09:29.442Z,18.8
2023-04-25T12:20:42.662Z,18.6
2023-04-25T12:26:40.007Z,18.5
2023-04-25T12:32:39.902Z,18.4
2023-04-25T12:38:35.453Z,18.4
2023-04-25T12:44:12.090Z,18.3
2023-04-25T12:50:14.453Z,18.3
2023-04-25T12:56:07.191Z,18.2
2023-04-25T13:02:01.838Z,18.1
2023-04-25T13:07:55.491Z,18.1
2023-04-25T13:13:52.910Z,18
2023-04-25T13:19:45.954Z,17.9
2023-04-25T13:25:21.924Z,17.9
2023-04-25T13:30:59.445Z,17.8
2023-04-25T13:36:36.658Z,17.8
2023-04-25T13:42:13.632Z,17.8
2023-04-25T13:48:27.896Z,17.7
2023-04-25T13:54:16.946Z,17.7
2023-04-25T14:00:09.542Z,17.6
2023-04-25T14:06:03.759Z,17.6
2023-04-25T14:11:54.497Z,17.6
2023-04-25T14:17:45.966Z,17.5
2023-04-25T14:23:23.292Z,17.5
2023-04-25T14:29:14.439Z,17.5
2023-04-25T14:34:50.314Z,17.4
2023-04-25T14:40:42.610Z,17.4
2023-04-25T14:45:48.719Z,17.4
2023-04-25T14:50:54.106Z,17.4
2023-04-25T14:56:15.420Z,17.4
2023-04-25T15:01:36.387Z,17.4
2023-04-25T15:07:16.305Z,17.3
2023-04-25T15:12:54.965Z,17.3
2023-04-25T15:18:36.256Z,17.3
2023-04-25T15:24:11.623Z,17.3
2023-04-25T15:29:48.763Z,17.3
2023-04-25T15:35:42.930Z,17.3
2023-04-25T15:41:33.928Z,17.3
2023-04-25T15:47:29.249Z,17.2
2023-04-25T15:53:07.218Z,17.2
2023-04-25T15:58:29.448Z,17.2
2023-04-25T16:04:24.255Z,17.2
2023-04-25T16:10:16.816Z,17.2
2023-04-25T16:15:52.215Z,17.1
2023-04-25T16:21:31.041Z,17.1
2023-04-25T16:27:07.059Z,17.1
2023-04-25T16:32:45.357Z,17.1
2023-04-25T16:38:07.270Z,17.1
2023-04-25T16:43:44.244Z,17.1
2023-04-25T16:49:20.273Z,17.1
2023-04-25T16:54:41.660Z,17.1
2023-04-25T17:00:04.495Z,17.1
2023-04-25T17:05:43.360Z,17.1
2023-04-25T17:11:35.489Z,17.1
2023-04-25T17:17:21.956Z,17.1
2023-04-25T17:22:43.765Z,17.1
2023-04-25T17:28:05.061Z,17.1
2023-04-25T17:38:15.009Z,17.1
2023-04-25T17:43:52.766Z,17.1
2023-04-25T18:21:26.905Z,16.9
2023-04-25T18:38:35.257Z,16.9
2023-04-25T18:45:09.906Z,16.9
2023-04-25T18:50:35.249Z,16.9
2023-04-25T18:56:12.455Z,16.9
2023-04-25T19:02:05.931Z,16.9
2023-04-25T19:07:46.701Z,16.9
2023-04-25T19:13:33.863Z,16.9
2023-04-25T19:19:12.160Z,16.9
2023-04-25T19:25:25.533Z,16.9
2023-04-25T19:31:03.435Z,16.9
2023-04-25T19:36:41.624Z,16.9
2023-04-25T19:42:21.055Z,16.9
2023-04-25T19:48:00.221Z,16.8
2023-04-25T19:53:22.175Z,16.8
2023-04-25T19:59:01.370Z,16.8
2023-04-25T20:04:41.015Z,16.8
2023-04-25T20:10:19.436Z,16.8
2023-04-25T20:15:57.218Z,16.8
2023-04-25T20:21:34.991Z,16.8
2023-04-25T20:27:13.028Z,16.8
2023-04-25T20:32:52.762Z,16.8
2023-04-25T20:38:44.485Z,16.8
2023-04-25T20:44:35.942Z,21.3
2023-04-25T20:50:12.835Z,24.4
2023-04-25T20:56:05.381Z,26.4
2023-04-25T21:01:40.801Z,23.1
2023-04-25T21:07:34.538Z,23.3
2023-04-25T21:13:10.391Z,23.4
2023-04-25T21:19:03.392Z,24.4
2023-04-25T21:24:55.571Z,26.9
2023-04-25T21:30:31.420Z,23.3
2023-04-25T21:36:23.678Z,23.5
2023-04-25T21:42:00.225Z,23.6
2023-04-25T21:48:05.301Z,23.5
2023-04-25T21:53:42.679Z,25.7
2023-04-25T21:59:19.115Z,24.1
2023-04-25T22:05:12.813Z,23.6
2023-04-25T22:10:28.746Z,23.8
2023-04-25T22:16:06.983Z,23.8
2023-04-25T22:21:43.850Z,23.6
2023-04-25T22:27:19.270Z,24.7
2023-04-25T22:33:11.474Z,25.4
2023-04-25T22:39:01.919Z,23.7
2023-04-25T22:44:53.106Z,23.8
